OIBL  Bandar Lengeh Airport

Add Bookmark

Bandar Lengeh, Iran

Status IATA
Operational BDH
Latitude Longitude
26° 31' 55" N 54° 49' 29" E
26.532000 54.824799
Local (DST + 5) UTC (GMT + 4)
Jan 31, 2015 12:02 Jan 31, 2015 08:32
Sunrise-Sunset Local UTC
Begin Civil Twilight 06:10 02:40
Sunrise 06:34 03:04
Sunset 05:33 14:03
End Civil Twilight 05:57 14:27

Current Weather

METAR Observed VFR
OIBL 310800Z 00000KT CAVOK 25/17 Q1019 Sat, Jan 31, 2015 @ 08:00 UTC
(32 Minutes ago)
Visual Flight Rules
Wind Visibility Clouds Conditions
Calm 10 km or more
  • Clear skies
  • No significant weather
Temperatures Readings Precipitation
Current Temp 25°C (77°F)
Dewpoint 17°C (63°F)
Humidity 61%
Altimeter 30.09"Hg
Sea Level Pressure 1019mb
Field Elevation 45.93'
None Recorded

Additional weather within a 92.6km radius of OIBL

Map ICAO Location
OIBS 74.8km S (202°)
OIBA 75.7km S (164°)
OIBK 83.9km W (270°)

24 Hour Weather History

Loading
-

24 Hour Weather Graphs

Loading
-

CheckWX.com is intended as a tool to help pilots better visualize weather data. It is not intended as a substitute for an official weather briefing obtained from a Flight Service Station. CheckWX.com does not meet the FAA requirements for an official pre-flight weather briefing. Therefore, it's important that pilots still call and obtain an official FSS pre-flight weather briefing.